sensor_id;sensor_type;location;lat;lon;timestamp;P1;durP1;ratioP1;P2;durP2;ratioP2
5539;SDS011;2792;52.452;9.752;2023-12-20T00:00:14;19.40;;;8.63;;
5539;SDS011;2792;52.452;9.752;2023-12-20T00:02:41;17.20;;;9.00;;
5539;SDS011;2792;52.452;9.752;2023-12-20T00:05:11;13.73;;;8.57;;
5539;SDS011;2792;52.452;9.752;2023-12-20T00:07:38;19.43;;;8.23;;
5539;SDS011;2792;52.452;9.752;2023-12-20T00:10:05;14.30;;;7.30;;
5539;SDS011;2792;52.452;9.752;2023-12-20T00:12:32;14.77;;;7.57;;
5539;SDS011;2792;52.452;9.752;2023-12-20T00:15:00;12.43;;;6.80;;
5539;SDS011;2792;52.452;9.752;2023-12-20T00:17:26;12.37;;;6.57;;
5539;SDS011;2792;52.452;9.752;2023-12-20T00:19:53;14.20;;;7.10;;
5539;SDS011;2792;52.452;9.752;2023-12-20T00:22:20;15.10;;;6.80;;
5539;SDS011;2792;52.452;9.752;2023-12-20T00:24:46;23.33;;;7.43;;
5539;SDS011;2792;52.452;9.752;2023-12-20T00:27:13;10.43;;;5.30;;
5539;SDS011;2792;52.452;9.752;2023-12-20T00:29:39;12.93;;;5.27;;
5539;SDS011;2792;52.452;9.752;2023-12-20T00:32:09;9.10;;;5.77;;
5539;SDS011;2792;52.452;9.752;2023-12-20T00:34:35;9.70;;;5.13;;
5539;SDS011;2792;52.452;9.752;2023-12-20T00:37:02;18.90;;;5.07;;
5539;SDS011;2792;52.452;9.752;2023-12-20T00:39:31;18.83;;;5.67;;
5539;SDS011;2792;52.452;9.752;2023-12-20T00:41:58;10.13;;;4.27;;
5539;SDS011;2792;52.452;9.752;2023-12-20T00:44:24;12.90;;;4.60;;
5539;SDS011;2792;52.452;9.752;2023-12-20T00:46:51;8.00;;;4.13;;
5539;SDS011;2792;52.452;9.752;2023-12-20T00:49:19;11.53;;;4.50;;
5539;SDS011;2792;52.452;9.752;2023-12-20T00:51:45;8.77;;;3.90;;
5539;SDS011;2792;52.452;9.752;2023-12-20T00:54:12;16.90;;;4.30;;
5539;SDS011;2792;52.452;9.752;2023-12-20T00:56:39;9.23;;;3.93;;
5539;SDS011;2792;52.452;9.752;2023-12-20T00:59:06;9.63;;;3.47;;
5539;SDS011;2792;52.452;9.752;2023-12-20T01:01:32;11.70;;;3.70;;
5539;SDS011;2792;52.452;9.752;2023-12-20T01:03:59;12.77;;;3.63;;
5539;SDS011;2792;52.452;9.752;2023-12-20T01:06:27;13.43;;;3.80;;
5539;SDS011;2792;52.452;9.752;2023-12-20T01:08:53;10.13;;;3.00;;
5539;SDS011;2792;52.452;9.752;2023-12-20T01:11:20;10.70;;;3.87;;
5539;SDS011;2792;52.452;9.752;2023-12-20T01:13:47;6.57;;;3.00;;
5539;SDS011;2792;52.452;9.752;2023-12-20T01:16:13;10.53;;;2.70;;
5539;SDS011;2792;52.452;9.752;2023-12-20T01:18:40;12.13;;;3.27;;
5539;SDS011;2792;52.452;9.752;2023-12-20T01:21:06;12.37;;;3.10;;
5539;SDS011;2792;52.452;9.752;2023-12-20T01:23:34;10.57;;;3.23;;
5539;SDS011;2792;52.452;9.752;2023-12-20T01:26:00;5.90;;;3.40;;
5539;SDS011;2792;52.452;9.752;2023-12-20T01:28:27;9.30;;;3.07;;
5539;SDS011;2792;52.452;9.752;2023-12-20T01:30:54;10.93;;;2.60;;
5539;SDS011;2792;52.452;9.752;2023-12-20T01:33:21;10.63;;;3.37;;
5539;SDS011;2792;52.452;9.752;2023-12-20T01:35:47;7.90;;;2.70;;
5539;SDS011;2792;52.452;9.752;2023-12-20T01:38:14;7.63;;;3.00;;
5539;SDS011;2792;52.452;9.752;2023-12-20T01:40:45;12.63;;;2.40;;
5539;SDS011;2792;52.452;9.752;2023-12-20T01:43:11;13.00;;;2.90;;
5539;SDS011;2792;52.452;9.752;2023-12-20T01:45:38;10.63;;;2.77;;
5539;SDS011;2792;52.452;9.752;2023-12-20T01:48:05;12.70;;;3.00;;
5539;SDS011;2792;52.452;9.752;2023-12-20T01:50:32;9.90;;;3.17;;
5539;SDS011;2792;52.452;9.752;2023-12-20T01:53:02;11.43;;;1.90;;
5539;SDS011;2792;52.452;9.752;2023-12-20T01:55:29;6.30;;;2.70;;
5539;SDS011;2792;52.452;9.752;2023-12-20T01:57:59;8.43;;;3.13;;
5539;SDS011;2792;52.452;9.752;2023-12-20T02:00:26;12.17;;;2.87;;
5539;SDS011;2792;52.452;9.752;2023-12-20T02:02:53;7.80;;;2.33;;
5539;SDS011;2792;52.452;9.752;2023-12-20T02:05:20;17.63;;;3.23;;
5539;SDS011;2792;52.452;9.752;2023-12-20T02:07:46;13.30;;;2.73;;
5539;SDS011;2792;52.452;9.752;2023-12-20T02:10:13;5.20;;;2.33;;
5539;SDS011;2792;52.452;9.752;2023-12-20T02:12:39;14.27;;;3.53;;
5539;SDS011;2792;52.452;9.752;2023-12-20T02:15:08;6.90;;;2.90;;
5539;SDS011;2792;52.452;9.752;2023-12-20T02:17:35;12.40;;;2.80;;
5539;SDS011;2792;52.452;9.752;2023-12-20T02:20:02;6.70;;;2.27;;
5539;SDS011;2792;52.452;9.752;2023-12-20T02:22:32;10.13;;;3.00;;
5539;SDS011;2792;52.452;9.752;2023-12-20T02:24:58;14.87;;;3.17;;
5539;SDS011;2792;52.452;9.752;2023-12-20T02:27:25;11.87;;;2.57;;
5539;SDS011;2792;52.452;9.752;2023-12-20T02:29:51;13.40;;;3.27;;
5539;SDS011;2792;52.452;9.752;2023-12-20T02:32:18;11.73;;;2.77;;
5539;SDS011;2792;52.452;9.752;2023-12-20T02:34:45;11.80;;;2.90;;
5539;SDS011;2792;52.452;9.752;2023-12-20T02:37:13;13.63;;;3.23;;
5539;SDS011;2792;52.452;9.752;2023-12-20T02:39:41;10.20;;;3.57;;
5539;SDS011;2792;52.452;9.752;2023-12-20T02:42:07;15.67;;;3.07;;
5539;SDS011;2792;52.452;9.752;2023-12-20T02:44:34;10.70;;;3.00;;
5539;SDS011;2792;52.452;9.752;2023-12-20T02:47:01;7.93;;;2.20;;
5539;SDS011;2792;52.452;9.752;2023-12-20T02:49:28;9.00;;;2.80;;
5539;SDS011;2792;52.452;9.752;2023-12-20T02:51:54;4.90;;;2.53;;
5539;SDS011;2792;52.452;9.752;2023-12-20T02:54:21;19.70;;;3.07;;
5539;SDS011;2792;52.452;9.752;2023-12-20T02:56:48;4.97;;;3.37;;
5539;SDS011;2792;52.452;9.752;2023-12-20T02:59:15;8.40;;;3.47;;
5539;SDS011;2792;52.452;9.752;2023-12-20T03:01:41;8.40;;;2.90;;
5539;SDS011;2792;52.452;9.752;2023-12-20T03:04:09;16.90;;;4.13;;
5539;SDS011;2792;52.452;9.752;2023-12-20T03:06:35;10.33;;;4.10;;
5539;SDS011;2792;52.452;9.752;2023-12-20T03:09:02;10.10;;;3.53;;
5539;SDS011;2792;52.452;9.752;2023-12-20T03:11:29;19.40;;;4.00;;
5539;SDS011;2792;52.452;9.752;2023-12-20T03:13:57;12.30;;;4.10;;
5539;SDS011;2792;52.452;9.752;2023-12-20T03:16:26;9.40;;;3.10;;
5539;SDS011;2792;52.452;9.752;2023-12-20T03:18:52;14.47;;;3.63;;
5539;SDS011;2792;52.452;9.752;2023-12-20T03:21:19;12.33;;;4.27;;
5539;SDS011;2792;52.452;9.752;2023-12-20T03:23:46;7.30;;;3.60;;
5539;SDS011;2792;52.452;9.752;2023-12-20T03:26:12;15.00;;;3.50;;
5539;SDS011;2792;52.452;9.752;2023-12-20T03:28:39;16.60;;;3.60;;
5539;SDS011;2792;52.452;9.752;2023-12-20T03:31:07;9.60;;;3.10;;
5539;SDS011;2792;52.452;9.752;2023-12-20T03:33:33;9.70;;;2.97;;
5539;SDS011;2792;52.452;9.752;2023-12-20T03:36:00;12.93;;;3.80;;
5539;SDS011;2792;52.452;9.752;2023-12-20T03:38:26;10.70;;;2.47;;
5539;SDS011;2792;52.452;9.752;2023-12-20T03:40:53;8.67;;;2.97;;
5539;SDS011;2792;52.452;9.752;2023-12-20T03:43:19;7.77;;;2.80;;
5539;SDS011;2792;52.452;9.752;2023-12-20T03:45:46;11.53;;;2.53;;
5539;SDS011;2792;52.452;9.752;2023-12-20T03:48:13;8.20;;;2.93;;
5539;SDS011;2792;52.452;9.752;2023-12-20T03:50:39;9.47;;;2.60;;
5539;SDS011;2792;52.452;9.752;2023-12-20T03:53:06;4.80;;;2.43;;
5539;SDS011;2792;52.452;9.752;2023-12-20T03:55:33;7.63;;;2.20;;
5539;SDS011;2792;52.452;9.752;2023-12-20T03:57:59;6.60;;;2.40;;
5539;SDS011;2792;52.452;9.752;2023-12-20T04:00:26;5.67;;;2.20;;
5539;SDS011;2792;52.452;9.752;2023-12-20T04:02:52;12.63;;;2.20;;
5539;SDS011;2792;52.452;9.752;2023-12-20T04:05:20;11.30;;;2.33;;
5539;SDS011;2792;52.452;9.752;2023-12-20T04:07:46;10.73;;;2.47;;
5539;SDS011;2792;52.452;9.752;2023-12-20T04:10:15;17.33;;;2.50;;
5539;SDS011;2792;52.452;9.752;2023-12-20T04:12:41;10.57;;;2.20;;
5539;SDS011;2792;52.452;9.752;2023-12-20T04:15:08;11.07;;;2.67;;
5539;SDS011;2792;52.452;9.752;2023-12-20T04:17:37;7.73;;;2.17;;
5539;SDS011;2792;52.452;9.752;2023-12-20T04:20:04;4.20;;;1.80;;
5539;SDS011;2792;52.452;9.752;2023-12-20T04:22:32;10.67;;;2.77;;
5539;SDS011;2792;52.452;9.752;2023-12-20T04:24:59;14.23;;;3.20;;
5539;SDS011;2792;52.452;9.752;2023-12-20T04:27:25;6.13;;;2.03;;
5539;SDS011;2792;52.452;9.752;2023-12-20T04:29:52;4.27;;;1.97;;
5539;SDS011;2792;52.452;9.752;2023-12-20T04:32:18;12.37;;;3.00;;
5539;SDS011;2792;52.452;9.752;2023-12-20T04:34:45;4.67;;;2.10;;
5539;SDS011;2792;52.452;9.752;2023-12-20T04:37:11;11.20;;;3.37;;
5539;SDS011;2792;52.452;9.752;2023-12-20T04:39:39;10.27;;;2.57;;
5539;SDS011;2792;52.452;9.752;2023-12-20T04:42:06;10.87;;;2.40;;
5539;SDS011;2792;52.452;9.752;2023-12-20T04:44:33;10.90;;;3.00;;
5539;SDS011;2792;52.452;9.752;2023-12-20T04:46:59;8.93;;;2.20;;
5539;SDS011;2792;52.452;9.752;2023-12-20T04:49:26;8.83;;;2.37;;
5539;SDS011;2792;52.452;9.752;2023-12-20T04:51:53;6.40;;;2.50;;
5539;SDS011;2792;52.452;9.752;2023-12-20T04:54:19;7.80;;;2.60;;
5539;SDS011;2792;52.452;9.752;2023-12-20T04:56:47;8.10;;;2.50;;
5539;SDS011;2792;52.452;9.752;2023-12-20T04:59:14;7.13;;;2.60;;
5539;SDS011;2792;52.452;9.752;2023-12-20T05:01:40;10.17;;;3.00;;
5539;SDS011;2792;52.452;9.752;2023-12-20T05:04:06;3.97;;;2.70;;
5539;SDS011;2792;52.452;9.752;2023-12-20T05:06:33;15.20;;;3.30;;
5539;SDS011;2792;52.452;9.752;2023-12-20T05:08:59;6.77;;;2.83;;
5539;SDS011;2792;52.452;9.752;2023-12-20T05:11:26;13.13;;;3.00;;
5539;SDS011;2792;52.452;9.752;2023-12-20T05:13:54;10.20;;;2.97;;
5539;SDS011;2792;52.452;9.752;2023-12-20T05:16:20;12.80;;;3.20;;
5539;SDS011;2792;52.452;9.752;2023-12-20T05:18:48;8.67;;;2.60;;
5539;SDS011;2792;52.452;9.752;2023-12-20T05:21:15;6.37;;;2.73;;
5539;SDS011;2792;52.452;9.752;2023-12-20T05:23:42;9.83;;;3.60;;
5539;SDS011;2792;52.452;9.752;2023-12-20T05:26:08;8.70;;;3.73;;
5539;SDS011;2792;52.452;9.752;2023-12-20T05:28:34;11.00;;;2.90;;
5539;SDS011;2792;52.452;9.752;2023-12-20T05:31:02;11.80;;;3.47;;
5539;SDS011;2792;52.452;9.752;2023-12-20T05:33:29;9.37;;;3.20;;
5539;SDS011;2792;52.452;9.752;2023-12-20T05:35:56;10.10;;;3.17;;
5539;SDS011;2792;52.452;9.752;2023-12-20T05:38:22;12.30;;;3.13;;
5539;SDS011;2792;52.452;9.752;2023-12-20T05:40:49;12.23;;;3.60;;
5539;SDS011;2792;52.452;9.752;2023-12-20T05:43:15;9.67;;;3.50;;
5539;SDS011;2792;52.452;9.752;2023-12-20T05:45:42;7.43;;;3.07;;
5539;SDS011;2792;52.452;9.752;2023-12-20T05:48:10;24.20;;;3.67;;
5539;SDS011;2792;52.452;9.752;2023-12-20T05:50:36;14.60;;;3.50;;
5539;SDS011;2792;52.452;9.752;2023-12-20T05:53:03;8.93;;;3.10;;
5539;SDS011;2792;52.452;9.752;2023-12-20T05:55:30;12.30;;;3.57;;
5539;SDS011;2792;52.452;9.752;2023-12-20T05:57:57;13.50;;;3.23;;
5539;SDS011;2792;52.452;9.752;2023-12-20T06:00:23;10.00;;;2.90;;
5539;SDS011;2792;52.452;9.752;2023-12-20T06:02:50;13.10;;;4.07;;
5539;SDS011;2792;52.452;9.752;2023-12-20T06:05:18;7.47;;;3.60;;
5539;SDS011;2792;52.452;9.752;2023-12-20T06:07:45;7.80;;;3.90;;
5539;SDS011;2792;52.452;9.752;2023-12-20T06:10:13;11.87;;;3.60;;
5539;SDS011;2792;52.452;9.752;2023-12-20T06:12:40;12.50;;;3.47;;
5539;SDS011;2792;52.452;9.752;2023-12-20T06:15:07;9.13;;;3.20;;
5539;SDS011;2792;52.452;9.752;2023-12-20T06:17:33;8.50;;;3.40;;
5539;SDS011;2792;52.452;9.752;2023-12-20T06:20:00;5.43;;;2.77;;
5539;SDS011;2792;52.452;9.752;2023-12-20T06:22:29;12.93;;;3.80;;
5539;SDS011;2792;52.452;9.752;2023-12-20T06:24:55;13.80;;;3.07;;
5539;SDS011;2792;52.452;9.752;2023-12-20T06:27:22;10.73;;;3.23;;
5539;SDS011;2792;52.452;9.752;2023-12-20T06:29:48;10.93;;;3.70;;
5539;SDS011;2792;52.452;9.752;2023-12-20T06:32:15;18.10;;;3.60;;
5539;SDS011;2792;52.452;9.752;2023-12-20T06:34:41;14.13;;;3.20;;
5539;SDS011;2792;52.452;9.752;2023-12-20T06:37:08;15.53;;;3.30;;
5539;SDS011;2792;52.452;9.752;2023-12-20T06:39:36;7.03;;;2.50;;
5539;SDS011;2792;52.452;9.752;2023-12-20T06:42:03;12.23;;;3.53;;
5539;SDS011;2792;52.452;9.752;2023-12-20T06:44:29;11.23;;;3.00;;
5539;SDS011;2792;52.452;9.752;2023-12-20T06:46:56;11.10;;;3.90;;
5539;SDS011;2792;52.452;9.752;2023-12-20T06:49:23;11.30;;;3.30;;
5539;SDS011;2792;52.452;9.752;2023-12-20T06:51:49;10.57;;;3.40;;
5539;SDS011;2792;52.452;9.752;2023-12-20T06:54:16;9.40;;;3.30;;
5539;SDS011;2792;52.452;9.752;2023-12-20T06:56:44;9.03;;;3.30;;
5539;SDS011;2792;52.452;9.752;2023-12-20T06:59:11;14.73;;;3.73;;
5539;SDS011;2792;52.452;9.752;2023-12-20T07:01:38;14.23;;;3.60;;
5539;SDS011;2792;52.452;9.752;2023-12-20T07:04:04;12.97;;;3.87;;
5539;SDS011;2792;52.452;9.752;2023-12-20T07:06:31;12.87;;;3.43;;
5539;SDS011;2792;52.452;9.752;2023-12-20T07:08:58;9.57;;;3.10;;
5539;SDS011;2792;52.452;9.752;2023-12-20T07:11:24;8.73;;;3.30;;
5539;SDS011;2792;52.452;9.752;2023-12-20T07:13:52;10.40;;;3.50;;
5539;SDS011;2792;52.452;9.752;2023-12-20T07:16:19;15.53;;;3.47;;
5539;SDS011;2792;52.452;9.752;2023-12-20T07:18:46;11.80;;;5.00;;
5539;SDS011;2792;52.452;9.752;2023-12-20T07:21:12;12.00;;;2.97;;
5539;SDS011;2792;52.452;9.752;2023-12-20T07:23:39;13.50;;;4.93;;
5539;SDS011;2792;52.452;9.752;2023-12-20T07:26:05;13.37;;;4.50;;
5539;SDS011;2792;52.452;9.752;2023-12-20T07:28:32;9.80;;;3.53;;
5539;SDS011;2792;52.452;9.752;2023-12-20T07:31:00;17.90;;;4.00;;
5539;SDS011;2792;52.452;9.752;2023-12-20T07:33:26;8.57;;;3.73;;
5539;SDS011;2792;52.452;9.752;2023-12-20T07:35:53;13.83;;;4.77;;
5539;SDS011;2792;52.452;9.752;2023-12-20T07:38:19;13.23;;;3.73;;
5539;SDS011;2792;52.452;9.752;2023-12-20T07:40:46;17.10;;;4.40;;
5539;SDS011;2792;52.452;9.752;2023-12-20T07:43:12;12.63;;;3.97;;
5539;SDS011;2792;52.452;9.752;2023-12-20T07:45:39;9.93;;;3.27;;
5539;SDS011;2792;52.452;9.752;2023-12-20T07:48:07;15.77;;;3.23;;
5539;SDS011;2792;52.452;9.752;2023-12-20T07:50:34;17.63;;;4.97;;
5539;SDS011;2792;52.452;9.752;2023-12-20T07:53:00;10.30;;;4.30;;
5539;SDS011;2792;52.452;9.752;2023-12-20T07:55:28;7.13;;;3.30;;
5539;SDS011;2792;52.452;9.752;2023-12-20T07:57:55;4.60;;;2.70;;
5539;SDS011;2792;52.452;9.752;2023-12-20T08:00:22;15.50;;;4.63;;
5539;SDS011;2792;52.452;9.752;2023-12-20T08:02:48;10.30;;;3.70;;
5539;SDS011;2792;52.452;9.752;2023-12-20T08:05:16;8.63;;;3.27;;
5539;SDS011;2792;52.452;9.752;2023-12-20T08:07:42;14.00;;;4.60;;
5539;SDS011;2792;52.452;9.752;2023-12-20T08:10:09;12.63;;;4.37;;
5539;SDS011;2792;52.452;9.752;2023-12-20T08:12:36;25.23;;;4.77;;
5539;SDS011;2792;52.452;9.752;2023-12-20T08:15:07;12.13;;;4.50;;
5539;SDS011;2792;52.452;9.752;2023-12-20T08:17:34;16.03;;;5.00;;
5539;SDS011;2792;52.452;9.752;2023-12-20T08:20:00;11.40;;;3.70;;
5539;SDS011;2792;52.452;9.752;2023-12-20T08:22:28;17.67;;;4.40;;
5539;SDS011;2792;52.452;9.752;2023-12-20T08:24:55;10.10;;;5.30;;
5539;SDS011;2792;52.452;9.752;2023-12-20T08:27:21;11.27;;;4.63;;
5539;SDS011;2792;52.452;9.752;2023-12-20T08:29:48;9.43;;;4.17;;
5539;SDS011;2792;52.452;9.752;2023-12-20T08:32:16;15.43;;;4.77;;
5539;SDS011;2792;52.452;9.752;2023-12-20T08:34:42;9.87;;;4.20;;
5539;SDS011;2792;52.452;9.752;2023-12-20T08:37:09;7.80;;;3.50;;
5539;SDS011;2792;52.452;9.752;2023-12-20T08:39:36;10.07;;;4.47;;
5539;SDS011;2792;52.452;9.752;2023-12-20T08:42:03;16.37;;;4.20;;
5539;SDS011;2792;52.452;9.752;2023-12-20T08:44:30;17.07;;;5.43;;
5539;SDS011;2792;52.452;9.752;2023-12-20T08:46:56;15.60;;;4.67;;
5539;SDS011;2792;52.452;9.752;2023-12-20T08:49:23;11.60;;;5.37;;
5539;SDS011;2792;52.452;9.752;2023-12-20T08:51:50;9.70;;;3.70;;
5539;SDS011;2792;52.452;9.752;2023-12-20T08:54:17;19.03;;;4.27;;
5539;SDS011;2792;52.452;9.752;2023-12-20T08:56:45;14.87;;;4.20;;
5539;SDS011;2792;52.452;9.752;2023-12-20T08:59:12;9.93;;;4.37;;
5539;SDS011;2792;52.452;9.752;2023-12-20T09:01:39;11.00;;;3.57;;
5539;SDS011;2792;52.452;9.752;2023-12-20T09:04:05;18.07;;;4.17;;
5539;SDS011;2792;52.452;9.752;2023-12-20T09:06:32;10.90;;;4.13;;
5539;SDS011;2792;52.452;9.752;2023-12-20T09:08:58;11.77;;;3.80;;
5539;SDS011;2792;52.452;9.752;2023-12-20T09:11:25;9.70;;;3.93;;
5539;SDS011;2792;52.452;9.752;2023-12-20T09:13:53;11.70;;;3.60;;
5539;SDS011;2792;52.452;9.752;2023-12-20T09:16:19;12.07;;;3.77;;
5539;SDS011;2792;52.452;9.752;2023-12-20T09:18:46;15.27;;;4.30;;
5539;SDS011;2792;52.452;9.752;2023-12-20T09:21:12;8.63;;;3.57;;
5539;SDS011;2792;52.452;9.752;2023-12-20T09:23:39;10.80;;;4.00;;
5539;SDS011;2792;52.452;9.752;2023-12-20T09:26:05;11.77;;;4.03;;
5539;SDS011;2792;52.452;9.752;2023-12-20T09:28:32;9.90;;;3.60;;
5539;SDS011;2792;52.452;9.752;2023-12-20T09:31:03;11.60;;;3.73;;
5539;SDS011;2792;52.452;9.752;2023-12-20T09:33:30;13.00;;;3.40;;
5539;SDS011;2792;52.452;9.752;2023-12-20T09:35:57;13.57;;;3.90;;
5539;SDS011;2792;52.452;9.752;2023-12-20T09:38:23;9.37;;;3.90;;
5539;SDS011;2792;52.452;9.752;2023-12-20T09:40:50;8.40;;;3.57;;
5539;SDS011;2792;52.452;9.752;2023-12-20T09:43:18;10.17;;;3.87;;
5539;SDS011;2792;52.452;9.752;2023-12-20T09:45:46;11.03;;;3.00;;
5539;SDS011;2792;52.452;9.752;2023-12-20T09:48:14;14.37;;;3.73;;
5539;SDS011;2792;52.452;9.752;2023-12-20T09:50:43;6.50;;;2.40;;
5539;SDS011;2792;52.452;9.752;2023-12-20T09:53:11;14.37;;;4.17;;
5539;SDS011;2792;52.452;9.752;2023-12-20T09:55:41;9.67;;;3.20;;
5539;SDS011;2792;52.452;9.752;2023-12-20T09:58:07;16.10;;;3.37;;
5539;SDS011;2792;52.452;9.752;2023-12-20T10:00:34;17.03;;;3.40;;
5539;SDS011;2792;52.452;9.752;2023-12-20T10:03:01;10.47;;;2.70;;
5539;SDS011;2792;52.452;9.752;2023-12-20T10:05:29;12.33;;;3.40;;
5539;SDS011;2792;52.452;9.752;2023-12-20T10:07:57;6.20;;;3.13;;
5539;SDS011;2792;52.452;9.752;2023-12-20T10:10:24;11.63;;;3.47;;
5539;SDS011;2792;52.452;9.752;2023-12-20T10:13:03;13.77;;;3.13;;
5539;SDS011;2792;52.452;9.752;2023-12-20T10:15:32;12.43;;;3.00;;
5539;SDS011;2792;52.452;9.752;2023-12-20T10:17:58;11.50;;;3.67;;
5539;SDS011;2792;52.452;9.752;2023-12-20T10:20:25;11.37;;;3.20;;
5539;SDS011;2792;52.452;9.752;2023-12-20T10:22:55;8.70;;;3.10;;
5539;SDS011;2792;52.452;9.752;2023-12-20T10:25:21;9.00;;;2.80;;
5539;SDS011;2792;52.452;9.752;2023-12-20T10:27:49;13.93;;;3.37;;
5539;SDS011;2792;52.452;9.752;2023-12-20T10:30:15;11.30;;;3.77;;
5539;SDS011;2792;52.452;9.752;2023-12-20T10:32:42;11.07;;;3.27;;
5539;SDS011;2792;52.452;9.752;2023-12-20T10:35:09;8.40;;;3.33;;
5539;SDS011;2792;52.452;9.752;2023-12-20T10:37:36;11.90;;;3.27;;
5539;SDS011;2792;52.452;9.752;2023-12-20T10:40:04;16.10;;;3.97;;
5539;SDS011;2792;52.452;9.752;2023-12-20T10:42:32;10.30;;;3.40;;
5539;SDS011;2792;52.452;9.752;2023-12-20T10:44:59;14.70;;;3.57;;
5539;SDS011;2792;52.452;9.752;2023-12-20T10:47:25;10.20;;;2.93;;
5539;SDS011;2792;52.452;9.752;2023-12-20T10:49:52;15.10;;;3.20;;
5539;SDS011;2792;52.452;9.752;2023-12-20T10:52:19;7.13;;;3.00;;
5539;SDS011;2792;52.452;9.752;2023-12-20T10:54:46;12.77;;;3.20;;
5539;SDS011;2792;52.452;9.752;2023-12-20T10:57:14;6.60;;;3.00;;
5539;SDS011;2792;52.452;9.752;2023-12-20T10:59:41;11.57;;;3.37;;
5539;SDS011;2792;52.452;9.752;2023-12-20T11:02:10;7.63;;;3.33;;
5539;SDS011;2792;52.452;9.752;2023-12-20T11:04:39;11.93;;;4.33;;
5539;SDS011;2792;52.452;9.752;2023-12-20T11:07:18;10.93;;;3.73;;
5539;SDS011;2792;52.452;9.752;2023-12-20T11:09:48;13.20;;;3.60;;
5539;SDS011;2792;52.452;9.752;2023-12-20T11:12:20;9.40;;;3.63;;
5539;SDS011;2792;52.452;9.752;2023-12-20T11:14:51;7.43;;;3.33;;
5539;SDS011;2792;52.452;9.752;2023-12-20T11:17:19;10.63;;;3.60;;
5539;SDS011;2792;52.452;9.752;2023-12-20T11:20:05;11.80;;;3.63;;
5539;SDS011;2792;52.452;9.752;2023-12-20T11:22:37;11.53;;;3.63;;
5539;SDS011;2792;52.452;9.752;2023-12-20T11:25:07;7.60;;;3.50;;
5539;SDS011;2792;52.452;9.752;2023-12-20T11:27:36;8.90;;;3.97;;
5539;SDS011;2792;52.452;9.752;2023-12-20T11:30:04;14.23;;;3.93;;
5539;SDS011;2792;52.452;9.752;2023-12-20T11:32:33;7.90;;;4.00;;
5539;SDS011;2792;52.452;9.752;2023-12-20T11:35:01;12.20;;;4.50;;
5539;SDS011;2792;52.452;9.752;2023-12-20T11:37:42;17.17;;;3.90;;
5539;SDS011;2792;52.452;9.752;2023-12-20T11:40:11;6.70;;;2.37;;
5539;SDS011;2792;52.452;9.752;2023-12-20T11:42:41;3.50;;;1.40;;
5539;SDS011;2792;52.452;9.752;2023-12-20T11:45:08;6.07;;;1.33;;
5539;SDS011;2792;52.452;9.752;2023-12-20T11:47:35;5.20;;;2.00;;
5539;SDS011;2792;52.452;9.752;2023-12-20T11:50:02;3.27;;;1.63;;
5539;SDS011;2792;52.452;9.752;2023-12-20T11:52:30;2.57;;;1.57;;
5539;SDS011;2792;52.452;9.752;2023-12-20T11:54:56;3.83;;;1.83;;
5539;SDS011;2792;52.452;9.752;2023-12-20T11:57:23;4.43;;;1.80;;
5539;SDS011;2792;52.452;9.752;2023-12-20T11:59:51;4.40;;;1.33;;
5539;SDS011;2792;52.452;9.752;2023-12-20T12:02:17;3.77;;;1.50;;
5539;SDS011;2792;52.452;9.752;2023-12-20T12:04:44;2.53;;;1.23;;
5539;SDS011;2792;52.452;9.752;2023-12-20T12:07:11;3.07;;;1.70;;
5539;SDS011;2792;52.452;9.752;2023-12-20T12:09:37;2.70;;;1.30;;
5539;SDS011;2792;52.452;9.752;2023-12-20T12:12:04;2.47;;;1.70;;
5539;SDS011;2792;52.452;9.752;2023-12-20T12:14:31;2.30;;;1.37;;
5539;SDS011;2792;52.452;9.752;2023-12-20T12:16:59;5.00;;;1.47;;
5539;SDS011;2792;52.452;9.752;2023-12-20T12:19:26;4.37;;;1.40;;
5539;SDS011;2792;52.452;9.752;2023-12-20T12:22:03;9.27;;;1.40;;
5539;SDS011;2792;52.452;9.752;2023-12-20T12:24:30;2.70;;;1.10;;
5539;SDS011;2792;52.452;9.752;2023-12-20T12:26:57;7.40;;;1.20;;
5539;SDS011;2792;52.452;9.752;2023-12-20T12:29:24;2.00;;;1.17;;
5539;SDS011;2792;52.452;9.752;2023-12-20T12:31:50;6.30;;;1.13;;
5539;SDS011;2792;52.452;9.752;2023-12-20T12:34:18;4.50;;;1.30;;
5539;SDS011;2792;52.452;9.752;2023-12-20T12:36:44;6.20;;;1.10;;
5539;SDS011;2792;52.452;9.752;2023-12-20T12:39:11;3.23;;;1.10;;
5539;SDS011;2792;52.452;9.752;2023-12-20T12:41:40;2.33;;;0.90;;
5539;SDS011;2792;52.452;9.752;2023-12-20T12:44:06;1.20;;;1.10;;
5539;SDS011;2792;52.452;9.752;2023-12-20T12:46:33;4.20;;;1.30;;
5539;SDS011;2792;52.452;9.752;2023-12-20T12:48:59;5.93;;;0.80;;
5539;SDS011;2792;52.452;9.752;2023-12-20T12:51:27;2.63;;;0.90;;
5539;SDS011;2792;52.452;9.752;2023-12-20T12:53:54;2.30;;;1.20;;
5539;SDS011;2792;52.452;9.752;2023-12-20T12:56:20;3.80;;;1.20;;
5539;SDS011;2792;52.452;9.752;2023-12-20T12:58:48;4.50;;;1.20;;
5539;SDS011;2792;52.452;9.752;2023-12-20T13:01:14;1.80;;;1.10;;
5539;SDS011;2792;52.452;9.752;2023-12-20T13:03:41;5.00;;;1.10;;
5539;SDS011;2792;52.452;9.752;2023-12-20T13:06:06;4.83;;;1.60;;
5539;SDS011;2792;52.452;9.752;2023-12-20T13:08:35;1.33;;;1.20;;
5539;SDS011;2792;52.452;9.752;2023-12-20T13:11:01;3.13;;;1.13;;
5539;SDS011;2792;52.452;9.752;2023-12-20T13:13:29;5.90;;;1.30;;
5539;SDS011;2792;52.452;9.752;2023-12-20T13:15:55;4.47;;;1.97;;
5539;SDS011;2792;52.452;9.752;2023-12-20T13:18:22;2.97;;;1.10;;
5539;SDS011;2792;52.452;9.752;2023-12-20T13:20:49;4.30;;;1.10;;
5539;SDS011;2792;52.452;9.752;2023-12-20T13:23:15;5.57;;;1.20;;
5539;SDS011;2792;52.452;9.752;2023-12-20T13:25:44;1.63;;;0.97;;
5539;SDS011;2792;52.452;9.752;2023-12-20T13:28:11;10.77;;;1.53;;
5539;SDS011;2792;52.452;9.752;2023-12-20T13:30:38;4.40;;;1.10;;
5539;SDS011;2792;52.452;9.752;2023-12-20T13:33:05;3.63;;;1.50;;
5539;SDS011;2792;52.452;9.752;2023-12-20T13:35:31;15.00;;;1.90;;
5539;SDS011;2792;52.452;9.752;2023-12-20T13:37:58;3.03;;;2.53;;
5539;SDS011;2792;52.452;9.752;2023-12-20T13:40:24;3.97;;;1.60;;
5539;SDS011;2792;52.452;9.752;2023-12-20T13:42:52;2.03;;;1.13;;
5539;SDS011;2792;52.452;9.752;2023-12-20T13:45:20;4.53;;;1.37;;
5539;SDS011;2792;52.452;9.752;2023-12-20T13:47:46;5.73;;;1.37;;
5539;SDS011;2792;52.452;9.752;2023-12-20T13:50:13;3.60;;;1.00;;
5539;SDS011;2792;52.452;9.752;2023-12-20T13:52:39;5.87;;;1.60;;
5539;SDS011;2792;52.452;9.752;2023-12-20T13:55:06;3.77;;;1.13;;
5539;SDS011;2792;52.452;9.752;2023-12-20T13:57:33;2.23;;;0.90;;
5539;SDS011;2792;52.452;9.752;2023-12-20T14:00:04;3.40;;;1.07;;
5539;SDS011;2792;52.452;9.752;2023-12-20T14:02:37;6.90;;;1.10;;
5539;SDS011;2792;52.452;9.752;2023-12-20T14:05:04;2.43;;;1.20;;
5539;SDS011;2792;52.452;9.752;2023-12-20T14:07:32;4.80;;;1.27;;
5539;SDS011;2792;52.452;9.752;2023-12-20T14:09:58;7.40;;;1.40;;
5539;SDS011;2792;52.452;9.752;2023-12-20T14:12:25;3.40;;;1.33;;
5539;SDS011;2792;52.452;9.752;2023-12-20T14:14:51;5.40;;;2.23;;
5539;SDS011;2792;52.452;9.752;2023-12-20T14:17:24;5.00;;;1.50;;
5539;SDS011;2792;52.452;9.752;2023-12-20T14:19:51;4.50;;;1.60;;
5539;SDS011;2792;52.452;9.752;2023-12-20T14:22:19;4.50;;;1.43;;
5539;SDS011;2792;52.452;9.752;2023-12-20T14:24:46;7.27;;;1.83;;
5539;SDS011;2792;52.452;9.752;2023-12-20T14:27:12;3.17;;;1.27;;
5539;SDS011;2792;52.452;9.752;2023-12-20T14:29:39;6.03;;;1.10;;
5539;SDS011;2792;52.452;9.752;2023-12-20T14:32:05;4.80;;;1.57;;
5539;SDS011;2792;52.452;9.752;2023-12-20T14:34:33;4.47;;;2.17;;
5539;SDS011;2792;52.452;9.752;2023-12-20T14:37:00;4.03;;;1.40;;
5539;SDS011;2792;52.452;9.752;2023-12-20T14:39:27;4.77;;;1.60;;
5539;SDS011;2792;52.452;9.752;2023-12-20T14:41:53;4.43;;;1.60;;
5539;SDS011;2792;52.452;9.752;2023-12-20T14:44:20;5.40;;;1.60;;
5539;SDS011;2792;52.452;9.752;2023-12-20T14:46:47;8.00;;;1.87;;
5539;SDS011;2792;52.452;9.752;2023-12-20T14:49:13;9.43;;;1.53;;
5539;SDS011;2792;52.452;9.752;2023-12-20T14:51:44;13.43;;;2.00;;
5539;SDS011;2792;52.452;9.752;2023-12-20T14:54:12;9.50;;;1.47;;
5539;SDS011;2792;52.452;9.752;2023-12-20T14:56:39;4.90;;;1.50;;
5539;SDS011;2792;52.452;9.752;2023-12-20T14:59:06;5.23;;;1.67;;
5539;SDS011;2792;52.452;9.752;2023-12-20T15:01:33;2.57;;;1.50;;
5539;SDS011;2792;52.452;9.752;2023-12-20T15:03:59;5.27;;;1.83;;
5539;SDS011;2792;52.452;9.752;2023-12-20T15:06:26;4.83;;;1.40;;